• Join FlightAware (Why Join?)
  • Login
  • US Flag 
09:58PM EST


 

Airport Tracker/Info


-or-


 

Live Flight TrackerFlight Track Log ✈ N777NC ✈ 27-Jun-2013 ✈ KATL - KSDF

Flight Track Log - Related Links

Times and Time Zones

All times are in EDT time to prevent confusion due to time zone crossing. See the N777NC flight status page for this flight to view local times or setup timezone preferences in your user account.

Time Position Orientation Groundspeed Altitude Reporting Facility
EDT Latitude Longitude Course Direction KTS MPH feet Rate Location/Type
04:53PM 33.6536 -84.4856 348° North 442 509 2,600  Level Atlanta Center
04:54PM 33.6764 -84.5581 291° West 327 376 4,200 2,040 Climbing Atlanta Center
04:55PM 33.7303 -84.5908 333° Northwest 247 284 6,700 2,400 Climbing Atlanta Center
04:56PM 34.0375 -84.5225 349° North  Level FlightAware Approximate
04:56PM 33.8033 -84.6039 352° North 268 308 9,000  Level Atlanta Center
04:57PM 34.1322 -84.5473 347° North  Level FlightAware Approximate
04:57PM 33.8806 -84.6142 354° North 288 331 10,800  Level Atlanta Center
04:58PM 34.2317 -84.5749 348° North  Level FlightAware Approximate
04:58PM 33.9764 -84.6300 352° North 299 344 11,700  Level Atlanta Center
04:59PM 34.3316 -84.6006 348° North  Level FlightAware Approximate
04:59PM 34.0683 -84.6481 351° North 324 373 13,600  Level Atlanta Center
05:00PM 34.1661 -84.6764 347° North 346 398 15,400 1,920 Climbing Atlanta Center
05:01PM 34.2578 -84.7175 340° North 353 406 17,500 1,620 Climbing Atlanta Center
05:02PM 34.3536 -84.7658 337° Northwest 358 412 18,700 1,380 Climbing Atlanta Center
05:03PM 34.4533 -84.8172 337° Northwest 381 438 20,300 1,440 Climbing Atlanta Center
05:04PM 34.5575 -84.8533 344° North 381 438 21,600 1,200 Climbing Atlanta Center
05:05PM 34.6511 -84.8922 341° North 393 452 22,700 1,080 Climbing Atlanta Center
05:06PM 34.7594 -84.9186 349° North 393 452 23,800 1,320 Climbing Atlanta Center
05:07PM 34.8722 -84.9275 356° North 399 459 25,400 1,200 Climbing Atlanta Center
05:08PM 34.9850 -84.9083 North 399 459 26,300 780 Climbing Atlanta Center
05:09PM 35.0997 -84.8917 North 406 467 27,000 300 Climbing Atlanta Center
05:10PM 35.2125 -84.8750 North 406 467 27,000  Level Atlanta Center
05:11PM 35.3317 -84.8711 North 406 467 27,000 300 Level Atlanta Center
05:12PM 35.4442 -84.8775 357° North 406 467 27,600 480 Climbing Atlanta Center
05:13PM 35.5589 -84.8939 353° North 406 467 28,000 180 Climbing Atlanta Center
05:14PM 35.6756 -84.9028 356° North 406 467 28,000  Level Atlanta Center
05:15PM 35.8028 -84.9194 354° North 411 473 28,000  Level Atlanta Center
05:16PM 35.8994 -84.9658 339° North 443 510 28,000  Level Indianapolis Center
05:17PM 36.0139 -85.0158 341° North 441 507 28,000  Level Indianapolis Center
05:18PM 36.1281 -85.0575 344° North 429 494 28,000  Level Indianapolis Center
05:19PM 36.2431 -85.1058 341° North 432 497 28,000 -540 Level Indianapolis Center
05:20PM 36.3789 -85.1725 338° Northwest 437 503 27,000 -1,680 Descending Indianapolis Center
05:21PM 36.4917 -85.2125 344° North 424 488 24,600 -1,500 Descending Indianapolis Center
05:22PM 36.6025 -85.2414 348° North 408 470 24,000 -720 Descending Indianapolis Center
05:23PM 36.7053 -85.2914 339° North 403 464 23,200 -1,740 Descending Indianapolis Center
05:24PM 36.8019 -85.3642 329° Northwest 406 467 20,500 -2,580 Descending Indianapolis Center
05:25PM 36.8986 -85.4139 338° Northwest 380 437 17,900 -2,760 Descending Indianapolis Center
05:26PM 37.0136 -85.4633 341° North 365 420 14,900 -2,280 Descending Indianapolis Center
05:27PM 37.1019 -85.4997 342° North 356 410 13,300 -1,740 Descending Indianapolis Center
05:28PM 37.2014 -85.5386 343° North 347 399 11,400 -1,440 Descending Indianapolis Center
05:30PM 37.2939 -85.5667 346° North 339 390 10,400 -720 Descending Indianapolis Center
05:31PM 37.3858 -85.5808 353° North 334 384 10,000 -240 Descending Indianapolis Center
05:32PM 37.4744 -85.5917 354° North 321 369 10,000  Level Indianapolis Center
05:33PM 37.5606 -85.6278 342° North 326 375 10,000 -300 Level Indianapolis Center
05:34PM 37.6408 -85.6250 North 283 326 9,400 -1,260 Descending Indianapolis Center
05:35PM 37.7267 -85.6214 North 259 298 7,400 -1,800 Descending Indianapolis Center
05:36PM 37.7986 -85.6233 359° North 257 296 5,800 -1,560 Descending Indianapolis Center
05:37PM 37.8689 -85.6217 North 253 291 4,200 -1,260 Descending Indianapolis Center
05:38PM 37.9350 -85.6475 343° North 255 293 3,200 -600 Descending Indianapolis Center
05:39PM 38.0008 -85.6664 347° North 249 287 3,000 -240 Descending Indianapolis Center